Fairview, New Mexico
Current Conditions -  °F | °C
As of 11:55 PM on Thursday 27 Nov 2014 (Local Time) from KLAM Reporting Station
Clear Clear  
Wind Chill: 46°   Ceiling: Unl
Heat Index: 46°   Visibility: 10mi
Dew Point: 18°   Wind: 0mph
Humidity: 33%   Direction: NA
Pressure: 30.36"   Gusts: NA
Location:  36.0007°N, 106.072°W
Report Text: KLAM 280655Z AUTO 00000KT 10SM CLR 08/M08 A3036 RMK AO2 T00751078
Loading
Personal Weather Stations






























Interactive Weather Map New forecast layout! Learn more

10-Day Weather Forecast

Advertisements
Track Severe Weather on mobile